sensor_id;sensor_type;location;lat;lon;timestamp;pressure;altitude;pressure_sealevel;temperature;humidity
9307;BME280;4691;47.612;7.610;2023-02-02T00:01:15;99982.88;;;5.34;100.00
9307;BME280;4691;47.612;7.610;2023-02-02T00:03:41;99967.09;;;5.31;100.00
9307;BME280;4691;47.612;7.610;2023-02-02T00:06:06;99968.94;;;5.29;100.00
9307;BME280;4691;47.612;7.610;2023-02-02T00:08:31;99963.69;;;5.27;100.00
9307;BME280;4691;47.612;7.610;2023-02-02T00:10:57;99966.28;;;5.29;100.00
9307;BME280;4691;47.612;7.610;2023-02-02T00:13:23;99958.44;;;5.26;100.00
9307;BME280;4691;47.612;7.610;2023-02-02T00:15:48;99955.66;;;5.29;100.00
9307;BME280;4691;47.612;7.610;2023-02-02T00:18:13;99956.59;;;5.28;100.00
9307;BME280;4691;47.612;7.610;2023-02-02T00:20:39;99961.81;;;5.29;100.00
9307;BME280;4691;47.612;7.610;2023-02-02T00:23:04;99958.28;;;5.30;100.00
9307;BME280;4691;47.612;7.610;2023-02-02T00:25:30;99967.91;;;5.33;100.00
9307;BME280;4691;47.612;7.610;2023-02-02T00:27:55;99963.41;;;5.35;100.00
9307;BME280;4691;47.612;7.610;2023-02-02T00:30:21;99962.50;;;5.34;100.00
9307;BME280;4691;47.612;7.610;2023-02-02T00:32:46;99956.31;;;5.35;100.00
9307;BME280;4691;47.612;7.610;2023-02-02T00:35:13;99961.63;;;5.35;100.00
9307;BME280;4691;47.612;7.610;2023-02-02T00:37:39;99959.81;;;5.36;100.00
9307;BME280;4691;47.612;7.610;2023-02-02T00:40:05;99962.59;;;5.33;100.00
9307;BME280;4691;47.612;7.610;2023-02-02T00:42:31;99958.31;;;5.29;100.00
9307;BME280;4691;47.612;7.610;2023-02-02T00:44:56;99958.44;;;5.26;100.00
9307;BME280;4691;47.612;7.610;2023-02-02T00:47:43;99955.97;;;5.21;100.00
9307;BME280;4691;47.612;7.610;2023-02-02T00:50:11;99957.50;;;5.27;100.00
9307;BME280;4691;47.612;7.610;2023-02-02T00:52:37;99959.38;;;5.24;100.00
9307;BME280;4691;47.612;7.610;2023-02-02T00:55:02;99963.75;;;5.26;100.00
9307;BME280;4691;47.612;7.610;2023-02-02T00:57:27;99954.84;;;5.27;100.00
9307;BME280;4691;47.612;7.610;2023-02-02T00:59:53;99964.69;;;5.24;100.00
9307;BME280;4691;47.612;7.610;2023-02-02T01:02:18;99969.28;;;5.19;100.00
9307;BME280;4691;47.612;7.610;2023-02-02T01:04:43;99971.00;;;5.20;100.00
9307;BME280;4691;47.612;7.610;2023-02-02T01:07:09;99979.66;;;5.26;100.00
9307;BME280;4691;47.612;7.610;2023-02-02T01:09:34;99985.03;;;5.24;100.00
9307;BME280;4691;47.612;7.610;2023-02-02T01:11:59;99976.19;;;5.23;100.00
9307;BME280;4691;47.612;7.610;2023-02-02T01:14:25;99979.78;;;5.22;100.00
9307;BME280;4691;47.612;7.610;2023-02-02T01:16:50;99988.66;;;5.21;100.00
9307;BME280;4691;47.612;7.610;2023-02-02T01:19:15;99991.25;;;5.23;100.00
9307;BME280;4691;47.612;7.610;2023-02-02T01:21:41;99989.66;;;5.19;100.00
9307;BME280;4691;47.612;7.610;2023-02-02T01:24:07;99995.03;;;5.16;100.00
9307;BME280;4691;47.612;7.610;2023-02-02T01:26:33;99997.78;;;5.14;100.00
9307;BME280;4691;47.612;7.610;2023-02-02T01:28:58;99994.31;;;5.12;100.00
9307;BME280;4691;47.612;7.610;2023-02-02T01:31:24;99993.44;;;5.12;100.00
9307;BME280;4691;47.612;7.610;2023-02-02T01:33:50;100000.47;;;5.13;100.00
9307;BME280;4691;47.612;7.610;2023-02-02T01:36:18;99998.88;;;5.09;100.00
9307;BME280;4691;47.612;7.610;2023-02-02T01:38:45;99999.72;;;5.09;100.00
9307;BME280;4691;47.612;7.610;2023-02-02T01:41:17;99990.09;;;5.07;100.00
9307;BME280;4691;47.612;7.610;2023-02-02T01:46:29;99997.97;;;5.08;100.00
9307;BME280;4691;47.612;7.610;2023-02-02T01:49:02;100005.88;;;5.10;100.00
9307;BME280;4691;47.612;7.610;2023-02-02T01:51:39;100014.69;;;5.10;100.00
9307;BME280;4691;47.612;7.610;2023-02-02T01:54:08;100009.47;;;5.09;100.00
9307;BME280;4691;47.612;7.610;2023-02-02T01:56:40;99999.78;;;5.08;100.00
9307;BME280;4691;47.612;7.610;2023-02-02T01:59:09;99997.97;;;5.08;100.00
9307;BME280;4691;47.612;7.610;2023-02-02T02:01:34;99996.25;;;5.07;100.00
9307;BME280;4691;47.612;7.610;2023-02-02T02:04:00;99992.75;;;5.07;100.00
9307;BME280;4691;47.612;7.610;2023-02-02T02:06:25;99985.66;;;5.07;100.00
9307;BME280;4691;47.612;7.610;2023-02-02T02:09:00;99977.56;;;5.10;100.00
9307;BME280;4691;47.612;7.610;2023-02-02T02:11:28;99983.81;;;5.09;100.00
9307;BME280;4691;47.612;7.610;2023-02-02T02:13:55;99971.53;;;5.07;100.00
9307;BME280;4691;47.612;7.610;2023-02-02T02:23:11;99965.53;;;5.01;100.00
9307;BME280;4691;47.612;7.610;2023-02-02T02:39:58;99932.66;;;4.82;100.00
9307;BME280;4691;47.612;7.610;2023-02-02T02:42:29;99933.53;;;4.83;100.00
9307;BME280;4691;47.612;7.610;2023-02-02T02:45:00;99932.97;;;4.98;100.00
9307;BME280;4691;47.612;7.610;2023-02-02T02:47:28;99931.38;;;4.94;100.00
9307;BME280;4691;47.612;7.610;2023-02-02T02:49:54;99924.25;;;4.94;100.00
9307;BME280;4691;47.612;7.610;2023-02-02T02:52:19;99923.28;;;4.97;100.00
9307;BME280;4691;47.612;7.610;2023-02-02T02:54:53;99924.09;;;4.99;100.00
9307;BME280;4691;47.612;7.610;2023-02-02T03:05:51;99911.75;;;4.98;100.00
9307;BME280;4691;47.612;7.610;2023-02-02T03:08:28;99911.75;;;4.98;100.00
9307;BME280;4691;47.612;7.610;2023-02-02T03:10:56;99917.97;;;4.97;100.00
9307;BME280;4691;47.612;7.610;2023-02-02T03:13:24;99913.63;;;4.96;100.00
9307;BME280;4691;47.612;7.610;2023-02-02T03:15:50;99903.78;;;4.98;100.00
9307;BME280;4691;47.612;7.610;2023-02-02T03:19:31;99899.09;;;5.06;100.00
9307;BME280;4691;47.612;7.610;2023-02-02T03:21:56;99897.22;;;5.08;100.00
9307;BME280;4691;47.612;7.610;2023-02-02T03:24:22;99902.53;;;5.08;100.00
9307;BME280;4691;47.612;7.610;2023-02-02T03:26:47;99903.34;;;5.10;100.00
9307;BME280;4691;47.612;7.610;2023-02-02T03:29:13;99907.75;;;5.11;100.00
9307;BME280;4691;47.612;7.610;2023-02-02T03:31:38;99918.25;;;5.13;100.00
9307;BME280;4691;47.612;7.610;2023-02-02T03:34:04;99930.63;;;5.14;100.00
9307;BME280;4691;47.612;7.610;2023-02-02T03:36:29;99928.81;;;5.14;100.00
9307;BME280;4691;47.612;7.610;2023-02-02T03:38:54;99925.47;;;5.09;100.00
9307;BME280;4691;47.612;7.610;2023-02-02T03:41:20;99930.66;;;5.12;100.00
9307;BME280;4691;47.612;7.610;2023-02-02T03:43:45;99936.66;;;5.17;100.00
9307;BME280;4691;47.612;7.610;2023-02-02T03:46:10;99940.94;;;5.21;100.00
9307;BME280;4691;47.612;7.610;2023-02-02T03:48:37;99931.19;;;5.22;100.00
9307;BME280;4691;47.612;7.610;2023-02-02T03:51:10;99941.03;;;5.18;100.00
9307;BME280;4691;47.612;7.610;2023-02-02T03:53:37;99942.66;;;5.22;100.00
9307;BME280;4691;47.612;7.610;2023-02-02T03:56:03;99938.09;;;5.26;100.00
9307;BME280;4691;47.612;7.610;2023-02-02T03:58:28;99943.47;;;5.24;100.00
9307;BME280;4691;47.612;7.610;2023-02-02T04:00:58;99939.84;;;5.27;100.00
9307;BME280;4691;47.612;7.610;2023-02-02T04:03:26;99943.34;;;5.28;100.00
9307;BME280;4691;47.612;7.610;2023-02-02T04:05:52;99948.69;;;5.26;100.00
9307;BME280;4691;47.612;7.610;2023-02-02T04:08:17;99947.72;;;5.29;100.00
9307;BME280;4691;47.612;7.610;2023-02-02T04:10:42;99947.72;;;5.29;100.00
9307;BME280;4691;47.612;7.610;2023-02-02T04:13:08;99944.16;;;5.30;100.00
9307;BME280;4691;47.612;7.610;2023-02-02T04:15:33;99944.03;;;5.33;100.00
9307;BME280;4691;47.612;7.610;2023-02-02T04:17:58;99950.06;;;5.36;100.00
9307;BME280;4691;47.612;7.610;2023-02-02T04:20:24;99947.50;;;5.35;100.00
9307;BME280;4691;47.612;7.610;2023-02-02T04:22:49;99953.66;;;5.35;100.00
9307;BME280;4691;47.612;7.610;2023-02-02T04:25:15;99944.72;;;5.38;100.00
9307;BME280;4691;47.612;7.610;2023-02-02T04:27:40;99953.50;;;5.40;100.00
9307;BME280;4691;47.612;7.610;2023-02-02T04:30:06;99961.44;;;5.40;100.00
9307;BME280;4691;47.612;7.610;2023-02-02T04:32:33;99950.72;;;5.43;100.00
9307;BME280;4691;47.612;7.610;2023-02-02T04:34:58;99943.66;;;5.42;100.00
9307;BME280;4691;47.612;7.610;2023-02-02T04:37:23;99948.09;;;5.41;100.00
9307;BME280;4691;47.612;7.610;2023-02-02T04:39:49;99936.75;;;5.38;100.00
9307;BME280;4691;47.612;7.610;2023-02-02T04:42:15;99943.91;;;5.36;100.00
9307;BME280;4691;47.612;7.610;2023-02-02T04:44:40;99922.56;;;5.39;100.00
9307;BME280;4691;47.612;7.610;2023-02-02T04:47:05;99940.09;;;5.43;100.00
9307;BME280;4691;47.612;7.610;2023-02-02T04:49:31;99937.44;;;5.43;100.00
9307;BME280;4691;47.612;7.610;2023-02-02T04:51:56;99945.41;;;5.43;100.00
9307;BME280;4691;47.612;7.610;2023-02-02T04:54:21;99936.75;;;5.38;100.00
9307;BME280;4691;47.612;7.610;2023-02-02T04:56:47;99940.31;;;5.37;100.00
9307;BME280;4691;47.612;7.610;2023-02-02T04:59:12;99937.63;;;5.38;100.00
9307;BME280;4691;47.612;7.610;2023-02-02T05:01:38;99954.38;;;5.39;100.00
9307;BME280;4691;47.612;7.610;2023-02-02T05:04:03;99951.81;;;5.37;100.00
9307;BME280;4691;47.612;7.610;2023-02-02T05:06:28;99950.94;;;5.37;100.00
9307;BME280;4691;47.612;7.610;2023-02-02T05:08:54;99945.63;;;5.37;100.00
9307;BME280;4691;47.612;7.610;2023-02-02T05:11:20;99949.09;;;5.39;100.00
9307;BME280;4691;47.612;7.610;2023-02-02T05:13:48;99952.53;;;5.41;100.00
9307;BME280;4691;47.612;7.610;2023-02-02T05:16:14;99954.38;;;5.39;100.00
9307;BME280;4691;47.612;7.610;2023-02-02T05:18:41;99961.31;;;5.43;100.00
9307;BME280;4691;47.612;7.610;2023-02-02T05:21:06;99958.72;;;5.41;100.00
9307;BME280;4691;47.612;7.610;2023-02-02T05:23:32;99957.72;;;5.44;100.00
9307;BME280;4691;47.612;7.610;2023-02-02T05:25:57;99943.59;;;5.43;100.00
9307;BME280;4691;47.612;7.610;2023-02-02T05:28:23;99954.94;;;5.47;100.00
9307;BME280;4691;47.612;7.610;2023-02-02T05:30:48;99949.59;;;5.49;100.00
9307;BME280;4691;47.612;7.610;2023-02-02T05:33:14;99952.28;;;5.47;100.00
9307;BME280;4691;47.612;7.610;2023-02-02T05:35:40;99952.19;;;5.50;100.00
9307;BME280;4691;47.612;7.610;2023-02-02T05:38:05;99951.22;;;5.53;100.00
9307;BME280;4691;47.612;7.610;2023-02-02T05:40:30;99948.75;;;5.48;100.00
9307;BME280;4691;47.612;7.610;2023-02-02T05:42:56;99944.25;;;5.50;100.00
9307;BME280;4691;47.612;7.610;2023-02-02T05:45:22;99945.91;;;5.53;100.00
9307;BME280;4691;47.612;7.610;2023-02-02T05:47:47;99942.38;;;5.52;100.00
9307;BME280;4691;47.612;7.610;2023-02-02T05:50:12;99950.91;;;5.60;100.00
9307;BME280;4691;47.612;7.610;2023-02-02T05:52:38;99958.88;;;5.60;100.00
9307;BME280;4691;47.612;7.610;2023-02-02T05:55:05;99954.31;;;5.64;100.00
9307;BME280;4691;47.612;7.610;2023-02-02T05:57:31;99961.41;;;5.63;100.00
9307;BME280;4691;47.612;7.610;2023-02-02T05:59:56;99964.78;;;5.67;100.00
9307;BME280;4691;47.612;7.610;2023-02-02T06:02:21;99971.63;;;5.73;100.00
9307;BME280;4691;47.612;7.610;2023-02-02T06:04:47;99965.59;;;5.69;100.00
9307;BME280;4691;47.612;7.610;2023-02-02T06:07:12;99967.25;;;5.72;100.00
9307;BME280;4691;47.612;7.610;2023-02-02T06:09:38;99970.72;;;5.74;100.00
9307;BME280;4691;47.612;7.610;2023-02-02T06:12:04;99971.84;;;5.68;100.00
9307;BME280;4691;47.612;7.610;2023-02-02T06:14:29;99979.50;;;5.76;100.00
9307;BME280;4691;47.612;7.610;2023-02-02T06:16:55;99972.69;;;5.68;100.00
9307;BME280;4691;47.612;7.610;2023-02-02T06:19:20;99973.44;;;5.72;100.00
9307;BME280;4691;47.612;7.610;2023-02-02T06:21:45;99974.28;;;5.73;100.00
9307;BME280;4691;47.612;7.610;2023-02-02T06:24:10;99972.56;;;5.72;100.00
9307;BME280;4691;47.612;7.610;2023-02-02T06:26:36;99983.19;;;5.72;100.00
9307;BME280;4691;47.612;7.610;2023-02-02T06:29:01;99983.19;;;5.72;100.00
9307;BME280;4691;47.612;7.610;2023-02-02T06:31:27;99986.53;;;5.77;100.00
9307;BME280;4691;47.612;7.610;2023-02-02T06:33:56;99993.84;;;5.70;100.00
9307;BME280;4691;47.612;7.610;2023-02-02T06:36:22;99997.09;;;5.78;100.00
9307;BME280;4691;47.612;7.610;2023-02-02T06:38:50;99999.94;;;5.74;100.00
9307;BME280;4691;47.612;7.610;2023-02-02T06:41:16;99998.94;;;5.76;100.00
9307;BME280;4691;47.612;7.610;2023-02-02T06:43:41;100005.06;;;5.78;100.00
9307;BME280;4691;47.612;7.610;2023-02-02T06:46:07;99993.56;;;5.78;100.00
9307;BME280;4691;47.612;7.610;2023-02-02T06:48:32;99994.44;;;5.78;100.00
9307;BME280;4691;47.612;7.610;2023-02-02T06:50:58;100004.16;;;5.78;100.00
9307;BME280;4691;47.612;7.610;2023-02-02T06:53:24;100001.47;;;5.79;100.00
9307;BME280;4691;47.612;7.610;2023-02-02T06:55:55;100006.59;;;5.84;100.00
9307;BME280;4691;47.612;7.610;2023-02-02T06:58:20;99995.31;;;5.79;100.00
9307;BME280;4691;47.612;7.610;2023-02-02T07:00:46;100004.00;;;5.82;100.00
9307;BME280;4691;47.612;7.610;2023-02-02T07:03:12;100010.13;;;5.84;100.00
9307;BME280;4691;47.612;7.610;2023-02-02T07:05:37;100005.66;;;5.85;100.00
9307;BME280;4691;47.612;7.610;2023-02-02T07:08:03;100007.50;;;5.83;100.00
9307;BME280;4691;47.612;7.610;2023-02-02T07:10:29;100006.66;;;5.82;100.00
9307;BME280;4691;47.612;7.610;2023-02-02T07:12:54;100010.06;;;5.86;100.00
9307;BME280;4691;47.612;7.610;2023-02-02T07:15:19;100028.53;;;5.89;100.00
9307;BME280;4691;47.612;7.610;2023-02-02T07:17:44;100012.66;;;5.87;100.00
9307;BME280;4691;47.612;7.610;2023-02-02T07:20:10;100011.06;;;5.83;100.00
9307;BME280;4691;47.612;7.610;2023-02-02T07:22:39;100016.28;;;5.85;100.00
9307;BME280;4691;47.612;7.610;2023-02-02T07:25:06;100016.28;;;5.85;100.00
9307;BME280;4691;47.612;7.610;2023-02-02T07:27:32;100026.91;;;5.85;100.00
9307;BME280;4691;47.612;7.610;2023-02-02T07:29:58;100026.78;;;5.88;100.00
9307;BME280;4691;47.612;7.610;2023-02-02T07:32:23;100028.53;;;5.89;100.00
9307;BME280;4691;47.612;7.610;2023-02-02T07:34:48;100035.50;;;5.92;100.00
9307;BME280;4691;47.612;7.610;2023-02-02T07:37:14;100039.06;;;5.90;100.00
9307;BME280;4691;47.612;7.610;2023-02-02T07:39:39;100038.16;;;5.92;100.00
9307;BME280;4691;47.612;7.610;2023-02-02T07:42:05;100036.41;;;5.90;100.00
9307;BME280;4691;47.612;7.610;2023-02-02T07:44:32;100044.31;;;5.92;100.00
9307;BME280;4691;47.612;7.610;2023-02-02T07:46:57;100036.38;;;5.92;100.00
9307;BME280;4691;47.612;7.610;2023-02-02T07:49:23;100037.31;;;5.91;100.00
9307;BME280;4691;47.612;7.610;2023-02-02T07:51:48;100037.22;;;5.94;100.00
9307;BME280;4691;47.612;7.610;2023-02-02T07:54:14;100032.63;;;5.98;100.00
9307;BME280;4691;47.612;7.610;2023-02-02T07:56:39;100040.66;;;5.96;100.00
9307;BME280;4691;47.612;7.610;2023-02-02T07:59:05;100042.38;;;5.97;100.00
9307;BME280;4691;47.612;7.610;2023-02-02T08:01:30;100037.06;;;5.97;100.00
9307;BME280;4691;47.612;7.610;2023-02-02T08:03:57;100045.97;;;5.96;100.00
9307;BME280;4691;47.612;7.610;2023-02-02T08:06:29;100037.06;;;5.97;100.00
9307;BME280;4691;47.612;7.610;2023-02-02T08:08:57;100038.78;;;5.98;100.00
9307;BME280;4691;47.612;7.610;2023-02-02T08:11:23;100044.19;;;5.97;100.00
9307;BME280;4691;47.612;7.610;2023-02-02T08:13:54;100045.84;;;5.99;100.00
9307;BME280;4691;47.612;7.610;2023-02-02T08:16:21;100043.38;;;5.93;100.00
9307;BME280;4691;47.612;7.610;2023-02-02T08:18:47;100044.09;;;5.98;100.00
9307;BME280;4691;47.612;7.610;2023-02-02T08:21:13;100041.56;;;5.95;100.00
9307;BME280;4691;47.612;7.610;2023-02-02T08:23:39;100042.59;;;5.91;100.00
9307;BME280;4691;47.612;7.610;2023-02-02T08:26:11;100038.28;;;5.88;100.00
9307;BME280;4691;47.612;7.610;2023-02-02T08:28:37;100039.16;;;5.89;100.00
9307;BME280;4691;47.612;7.610;2023-02-02T08:31:25;100039.97;;;5.91;100.00
9307;BME280;4691;47.612;7.610;2023-02-02T08:33:51;100039.03;;;5.92;100.00
9307;BME280;4691;47.612;7.610;2023-02-02T08:36:19;100040.59;;;5.98;100.00
9307;BME280;4691;47.612;7.610;2023-02-02T08:38:45;100035.38;;;5.96;100.00
9307;BME280;4691;47.612;7.610;2023-02-02T08:41:13;100040.00;;;5.89;100.00
9307;BME280;4691;47.612;7.610;2023-02-02T08:43:39;100036.94;;;6.00;100.00
9307;BME280;4691;47.612;7.610;2023-02-02T08:46:05;100028.16;;;5.98;100.00
9307;BME280;4691;47.612;7.610;2023-02-02T08:48:32;100043.19;;;5.99;100.00
9307;BME280;4691;47.612;7.610;2023-02-02T08:50:58;100037.22;;;5.94;100.00
9307;BME280;4691;47.612;7.610;2023-02-02T08:53:24;100037.94;;;5.98;100.00
9307;BME280;4691;47.612;7.610;2023-02-02T08:56:00;100044.09;;;5.98;100.00
9307;BME280;4691;47.612;7.610;2023-02-02T08:58:26;100043.88;;;6.04;100.00
9307;BME280;4691;47.612;7.610;2023-02-02T09:00:52;100036.94;;;6.00;100.00
9307;BME280;4691;47.612;7.610;2023-02-02T09:03:18;100036.81;;;6.03;100.00
9307;BME280;4691;47.612;7.610;2023-02-02T09:05:43;100038.44;;;6.07;100.00
9307;BME280;4691;47.612;7.610;2023-02-02T09:08:09;100043.63;;;6.10;100.00
9307;BME280;4691;47.612;7.610;2023-02-02T09:10:35;100054.13;;;6.14;100.00
9307;BME280;4691;47.612;7.610;2023-02-02T09:13:01;100054.03;;;6.17;100.00
9307;BME280;4691;47.612;7.610;2023-02-02T09:15:26;100065.41;;;6.19;100.00
9307;BME280;4691;47.612;7.610;2023-02-02T09:17:51;100070.69;;;6.20;100.00
9307;BME280;4691;47.612;7.610;2023-02-02T09:20:17;100082.31;;;6.18;100.00
9307;BME280;4691;47.612;7.610;2023-02-02T09:22:42;100091.06;;;6.20;100.00
9307;BME280;4691;47.612;7.610;2023-02-02T09:25:08;100087.34;;;6.24;100.00
9307;BME280;4691;47.612;7.610;2023-02-02T09:27:37;100085.63;;;6.23;100.00
9307;BME280;4691;47.612;7.610;2023-02-02T09:30:05;100094.53;;;6.22;100.00
9307;BME280;4691;47.612;7.610;2023-02-02T09:32:31;100090.69;;;6.29;100.00
9307;BME280;4691;47.612;7.610;2023-02-02T09:34:56;100103.63;;;6.38;100.00
9307;BME280;4691;47.612;7.610;2023-02-02T09:37:21;100094.91;;;6.35;100.00
9307;BME280;4691;47.612;7.610;2023-02-02T09:39:47;100095.06;;;6.52;100.00
9307;BME280;4691;47.612;7.610;2023-02-02T09:42:49;100105.78;;;6.50;100.00
9307;BME280;4691;47.612;7.610;2023-02-02T09:45:30;100106.66;;;6.51;100.00
9307;BME280;4691;47.612;7.610;2023-02-02T09:48:07;100109.47;;;6.46;100.00
9307;BME280;4691;47.612;7.610;2023-02-02T09:50:51;100121.09;;;6.44;100.00
9307;BME280;4691;47.612;7.610;2023-02-02T09:53:47;100130.75;;;6.46;100.00
9307;BME280;4691;47.612;7.610;2023-02-02T09:56:20;100124.44;;;6.49;100.00
9307;BME280;4691;47.612;7.610;2023-02-02T09:58:54;100130.88;;;6.43;100.00
9307;BME280;4691;47.612;7.610;2023-02-02T10:01:29;100136.13;;;6.45;100.00
9307;BME280;4691;47.612;7.610;2023-02-02T10:06:40;100145.69;;;6.49;100.00
9307;BME280;4691;47.612;7.610;2023-02-02T10:12:03;100166.28;;;6.44;100.00
9307;BME280;4691;47.612;7.610;2023-02-02T10:14:45;100165.25;;;6.48;100.00
9307;BME280;4691;47.612;7.610;2023-02-02T10:20:02;100165.84;;;6.54;100.00
9307;BME280;4691;47.612;7.610;2023-02-02T10:22:32;100165.84;;;6.54;100.00
9307;BME280;4691;47.612;7.610;2023-02-02T10:24:58;100171.38;;;6.50;100.00
9307;BME280;4691;47.612;7.610;2023-02-02T10:27:36;100164.00;;;6.57;100.00
9307;BME280;4691;47.612;7.610;2023-02-02T10:30:05;100166.78;;;6.53;100.00
9307;BME280;4691;47.612;7.610;2023-02-02T10:32:35;100162.31;;;6.54;100.00
9307;BME280;4691;47.612;7.610;2023-02-02T10:46:48;100162.34;;;6.76;100.00
9307;BME280;4691;47.612;7.610;2023-02-02T10:49:37;100160.44;;;6.78;100.00
9307;BME280;4691;47.612;7.610;2023-02-02T10:52:23;100166.75;;;6.75;100.00
9307;BME280;4691;47.612;7.610;2023-02-02T11:02:56;100165.44;;;7.08;100.00
9307;BME280;4691;47.612;7.610;2023-02-02T11:05:25;100151.47;;;7.03;100.00
9307;BME280;4691;47.612;7.610;2023-02-02T11:08:16;100160.13;;;7.08;100.00
9307;BME280;4691;47.612;7.610;2023-02-02T11:10:44;100164.09;;;6.97;100.00
9307;BME280;4691;47.612;7.610;2023-02-02T11:13:18;100156.78;;;7.03;100.00
9307;BME280;4691;47.612;7.610;2023-02-02T11:15:49;100149.22;;;7.14;100.00
9307;BME280;4691;47.612;7.610;2023-02-02T11:18:29;100151.09;;;7.12;100.00
9307;BME280;4691;47.612;7.610;2023-02-02T11:20:56;100160.84;;;7.11;100.00
9307;BME280;4691;47.612;7.610;2023-02-02T11:23:22;100154.28;;;7.20;100.00
9307;BME280;4691;47.612;7.610;2023-02-02T11:25:58;100161.06;;;7.27;100.00
9307;BME280;4691;47.612;7.610;2023-02-02T11:28:25;100148.81;;;7.23;100.00
9307;BME280;4691;47.612;7.610;2023-02-02T11:30:54;100150.53;;;7.24;100.00
9307;BME280;4691;47.612;7.610;2023-02-02T11:33:29;100156.78;;;7.03;100.00
9307;BME280;4691;47.612;7.610;2023-02-02T11:35:59;100150.97;;;7.15;100.00
9307;BME280;4691;47.612;7.610;2023-02-02T11:38:26;100158.09;;;7.35;100.00
9307;BME280;4691;47.612;7.610;2023-02-02T11:41:03;100165.19;;;7.55;100.00
9307;BME280;4691;47.612;7.610;2023-02-02T11:43:36;100142.97;;;7.35;100.00
9307;BME280;4691;47.612;7.610;2023-02-02T11:48:49;100208.84;;;7.08;100.00
9307;BME280;4691;47.612;7.610;2023-02-02T11:51:22;100130.59;;;7.34;100.00
9307;BME280;4691;47.612;7.610;2023-02-02T11:53:49;100118.75;;;7.21;100.00
9307;BME280;4691;47.612;7.610;2023-02-02T11:56:24;100105.19;;;7.48;100.00
9307;BME280;4691;47.612;7.610;2023-02-02T11:58:57;100107.28;;;7.39;100.00
9307;BME280;4691;47.612;7.610;2023-02-02T12:01:27;100121.94;;;7.29;100.00
9307;BME280;4691;47.612;7.610;2023-02-02T12:03:56;100111.97;;;7.34;100.00
9307;BME280;4691;47.612;7.610;2023-02-02T12:06:23;100109.22;;;7.56;100.00
9307;BME280;4691;47.612;7.610;2023-02-02T12:08:53;100110.09;;;7.16;100.00
9307;BME280;4691;47.612;7.610;2023-02-02T12:14:48;100120.50;;;7.02;100.00
9307;BME280;4691;47.612;7.610;2023-02-02T12:17:33;100112.50;;;6.81;100.00
9307;BME280;4691;47.612;7.610;2023-02-02T12:20:29;100103.91;;;6.74;100.00
9307;BME280;4691;47.612;7.610;2023-02-02T12:25:48;100095.97;;;6.73;100.00
9307;BME280;4691;47.612;7.610;2023-02-02T12:28:46;100097.31;;;6.83;100.00
9307;BME280;4691;47.612;7.610;2023-02-02T12:36:41;100094.09;;;6.97;100.00
9307;BME280;4691;47.612;7.610;2023-02-02T12:39:22;100089.50;;;7.01;100.00
9307;BME280;4691;47.612;7.610;2023-02-02T12:42:11;100101.94;;;7.00;100.00
9307;BME280;4691;47.612;7.610;2023-02-02T12:47:51;100104.78;;;7.16;100.00
9307;BME280;4691;47.612;7.610;2023-02-02T12:50:29;100100.66;;;7.29;100.00
9307;BME280;4691;47.612;7.610;2023-02-02T12:55:41;100107.88;;;7.27;100.00
9307;BME280;4691;47.612;7.610;2023-02-02T13:00:54;100112.63;;;7.19;100.00
9307;BME280;4691;47.612;7.610;2023-02-02T13:11:53;100118.19;;;7.14;100.00
9307;BME280;4691;47.612;7.610;2023-02-02T13:14:45;100111.38;;;7.07;100.00
9307;BME280;4691;47.612;7.610;2023-02-02T13:17:24;100110.53;;;7.07;100.00
9307;BME280;4691;47.612;7.610;2023-02-02T13:19:52;100112.09;;;7.11;100.00
9307;BME280;4691;47.612;7.610;2023-02-02T13:22:33;100112.09;;;7.11;100.00
9307;BME280;4691;47.612;7.610;2023-02-02T13:25:02;100112.09;;;7.11;100.00
9307;BME280;4691;47.612;7.610;2023-02-02T13:27:29;100107.63;;;7.11;100.00
9307;BME280;4691;47.612;7.610;2023-02-02T13:30:02;100112.84;;;7.14;100.00
9307;BME280;4691;47.612;7.610;2023-02-02T13:32:32;100116.19;;;7.19;100.00
9307;BME280;4691;47.612;7.610;2023-02-02T13:35:14;100133.31;;;7.12;100.00
9307;BME280;4691;47.612;7.610;2023-02-02T13:37:47;100132.00;;;7.23;100.00
9307;BME280;4691;47.612;7.610;2023-02-02T13:40:33;100136.31;;;7.25;100.00
9307;BME280;4691;47.612;7.610;2023-02-02T13:46:05;100126.53;;;7.26;100.00
9307;BME280;4691;47.612;7.610;2023-02-02T13:51:37;100125.16;;;7.37;100.00
9307;BME280;4691;47.612;7.610;2023-02-02T14:00:00;100125.00;;;7.40;100.00
9307;BME280;4691;47.612;7.610;2023-02-02T14:05:04;100123.53;;;7.33;100.00
9307;BME280;4691;47.612;7.610;2023-02-02T14:07:39;100121.94;;;7.29;100.00
9307;BME280;4691;47.612;7.610;2023-02-02T14:10:41;100134.47;;;7.27;100.00
9307;BME280;4691;47.612;7.610;2023-02-02T14:13:14;100122.75;;;7.31;100.00
9307;BME280;4691;47.612;7.610;2023-02-02T14:16:02;100135.13;;;7.32;100.00
9307;BME280;4691;47.612;7.610;2023-02-02T14:24:03;100129.88;;;7.31;100.00
9307;BME280;4691;47.612;7.610;2023-02-02T14:26:59;100126.34;;;7.30;100.00
9307;BME280;4691;47.612;7.610;2023-02-02T14:34:43;100142.97;;;7.35;100.00
9307;BME280;4691;47.612;7.610;2023-02-02T14:42:43;100162.75;;;7.30;100.00
9307;BME280;4691;47.612;7.610;2023-02-02T14:45:34;100162.94;;;7.25;100.00
9307;BME280;4691;47.612;7.610;2023-02-02T14:48:16;100161.94;;;7.28;100.00
9307;BME280;4691;47.612;7.610;2023-02-02T14:50:59;100169.84;;;7.29;100.00
9307;BME280;4691;47.612;7.610;2023-02-02T14:53:34;100165.47;;;7.28;100.00
9307;BME280;4691;47.612;7.610;2023-02-02T14:58:35;100179.81;;;7.24;100.00
9307;BME280;4691;47.612;7.610;2023-02-02T15:03:54;100195.78;;;7.24;100.00
9307;BME280;4691;47.612;7.610;2023-02-02T15:06:33;100189.41;;;7.28;100.00
9307;BME280;4691;47.612;7.610;2023-02-02T15:20:05;100186.25;;;7.18;100.00
9307;BME280;4691;47.612;7.610;2023-02-02T15:25:19;100180.03;;;7.19;100.00
9307;BME280;4691;47.612;7.610;2023-02-02T15:27:52;100182.59;;;7.21;100.00
9307;BME280;4691;47.612;7.610;2023-02-02T15:30:19;100191.41;;;7.23;100.00
9307;BME280;4691;47.612;7.610;2023-02-02T15:32:47;100207.50;;;7.20;100.00
9307;BME280;4691;47.612;7.610;2023-02-02T15:35:19;100195.91;;;7.21;100.00
9307;BME280;4691;47.612;7.610;2023-02-02T15:37:49;100201.19;;;7.23;100.00
9307;BME280;4691;47.612;7.610;2023-02-02T15:40:21;100202.72;;;7.28;100.00
9307;BME280;4691;47.612;7.610;2023-02-02T15:43:09;100202.91;;;7.24;100.00
9307;BME280;4691;47.612;7.610;2023-02-02T15:46:01;100208.84;;;7.30;100.00
9307;BME280;4691;47.612;7.610;2023-02-02T15:48:28;100201.09;;;7.24;100.00